No particular awareness of the weather is required.    There are no Weather-warnings


Meteo18 Weather Cam more information Meteo18 Weather Cam


Thunder radar more information blitzortung!


Rain radar more information rain snow radar


Visit our other weather sites:

Template documentation
and downloads

And another site



Weather Underground History page Text

Daily Summary for November 11, 2017 Units:  Metric    English   Both
« Previous Day
Next Day »
Daily Weekly Monthly Yearly Custom
  High: Low: Average:
Temperature: -17.8 °C -13.3 °C -11.8 °C
Dew Point: -17.8 °C -14.4 °C -12.3 °C
Humidity: Humidity % 85 % 94 %
Wind Speed: 0 km/h 0 km/h 18.8 km/h
Wind Gust: 0 km/h - -
Wind:- - West
Pressure: 0 hPa 34384.8 hPa -
Precipitation: 187.96 mm    
Historical Graphs
 
 
Tabular Data for November 11, 2017
Time Temperature Dew Point Pressure Wind Wind Speed Wind Gust Humidity Rainfall Rate (Hourly)
-17.8 °C -17.8 °C 0 hPa Calm     Humidity % 0 mm
00:02 -12.7 °C -14.1 °C 34693 hPa NW 15.6 km/h 20.8 km/h 85 % 0 mm
00:07 -12.7 °C -14.1 °C 34693 hPa WNW 7.7 km/h 20.8 km/h 85 % 0 mm
00:12 -12.7 °C -14.1 °C 34693 hPa WNW 10.3 km/h 20.8 km/h 85 % 0 mm
00:17 -12.8 °C -14.1 °C 34693 hPa WNW 10.3 km/h 20.8 km/h 85 % 0 mm
00:22 -12.8 °C -14.1 °C 34693 hPa NNW 5.1 km/h 18.2 km/h 86 % 0 mm
00:32 -12.8 °C -14.1 °C 34693 hPa WNW 5.1 km/h 18.2 km/h 86 % 0 mm
00:42 -12.8 °C -13.9 °C 34693 hPa SSW 5.1 km/h 20.8 km/h 87 % 0 mm
00:47 -12.8 °C -13.9 °C 34693 hPa NW 5.1 km/h 23.3 km/h 87 % 0 mm
00:52 -12.8 °C -13.9 °C 34693 hPa WSW 2.6 km/h 23.3 km/h 87 % 0 mm
00:57 -12.8 °C -13.9 °C 34682.8 hPa WNW 12.9 km/h 23.3 km/h 87 % 0 mm
01:02 -12.8 °C -13.9 °C 34682.8 hPa WNW 15.6 km/h 20.8 km/h 87 % 0 mm
01:07 -12.8 °C -13.9 °C 34682.8 hPa West 12.9 km/h 20.8 km/h 87 % 0 mm
01:12 -12.8 °C -13.9 °C 34682.8 hPa West 7.7 km/h 20.8 km/h 87 % 0 mm
01:17 -12.8 °C -13.9 °C 34682.8 hPa West 10.3 km/h 20.8 km/h 87 % 0 mm
01:22 -12.8 °C -13.9 °C 34682.8 hPa WSW 7.7 km/h 20.8 km/h 87 % 0 mm
01:27 -12.8 °C -13.9 °C 34682.8 hPa WNW 5.1 km/h 23.3 km/h 87 % 0 mm
01:32 -12.8 °C -13.9 °C 34682.8 hPa West 7.7 km/h 23.3 km/h 87 % 0 mm
01:37 -12.8 °C -13.9 °C 34682.8 hPa WNW 12.9 km/h 23.3 km/h 87 % 0 mm
01:42 -12.8 °C -13.9 °C 34682.8 hPa West 5.1 km/h 25.9 km/h 87 % 0 mm
01:47 -12.8 °C -13.9 °C 34682.8 hPa WNW 2.6 km/h 25.9 km/h 88 % 0 mm
01:52 -12.8 °C -13.9 °C 34682.8 hPa WNW 5.1 km/h 25.9 km/h 88 % 0 mm
01:57 -12.8 °C -13.9 °C 34682.8 hPa West 2.6 km/h 15.6 km/h 88 % 0 mm
02:02 -12.9 °C -13.9 °C 34682.8 hPa WNW 15.6 km/h 15.6 km/h 88 % 0 mm
02:07 -12.8 °C -13.9 °C 34682.8 hPa WNW 10.3 km/h 18.2 km/h 88 % 0 mm
02:12 -12.8 °C -13.9 °C 34682.8 hPa WNW 7.7 km/h 18.2 km/h 88 % 0 mm
02:17 -12.9 °C -14 °C 34682.8 hPa West 7.7 km/h 18.2 km/h 87 % 0 mm
02:22 -12.9 °C -14 °C 34682.8 hPa WSW 7.7 km/h 18.2 km/h 87 % 0 mm
02:27 -12.9 °C -14 °C 34682.8 hPa WSW 5.1 km/h 12.9 km/h 88 % 0 mm
02:32 -12.9 °C -14 °C 34682.8 hPa WSW 10.3 km/h 12.9 km/h 88 % 0 mm
02:37 -12.9 °C -14 °C 34682.8 hPa WSW 5.1 km/h 12.9 km/h 88 % 0 mm
02:42 -13.3 °C -14.4 °C 34682.8 hPa West 2.6 km/h 12.9 km/h 88 % 0 mm
02:52 -13.2 °C -14.3 °C 34669.3 hPa Calm   7.7 km/h 88 % 0 mm
02:57 -13.2 °C -14.3 °C 34682.8 hPa Calm   5.1 km/h 88 % 0 mm
08:42 -13.1 °C -13.4 °C 34554.1 hPa SW 33.6 km/h 41.4 km/h 96 % 0 mm
08:47 -13.1 °C -13.4 °C 34554.1 hPa SW 15.6 km/h 41.4 km/h 96 % 0 mm
08:52 -13 °C -13.3 °C 34554.1 hPa WSW 25.9 km/h 41.4 km/h 96 % 0 mm
09:02 -13 °C -13.3 °C 34554.1 hPa SW 23.3 km/h 46.7 km/h 96 % 0 mm
09:07 -13 °C -13.3 °C 34554.1 hPa WSW 7.7 km/h 46.7 km/h 96 % 0 mm
09:12 -13 °C -13.3 °C 34554.1 hPa West 28.5 km/h 46.7 km/h 96 % 7.62 mm
09:17 -13 °C -13.3 °C 34554.1 hPa West 12.9 km/h 46.7 km/h 96 % 7.62 mm
09:22 -12.9 °C -13.3 °C 34554.1 hPa WSW 15.6 km/h 46.7 km/h 96 % 7.62 mm
09:27 -12.9 °C -13.3 °C 34554.1 hPa West 15.6 km/h 49.2 km/h 96 % 7.62 mm
09:32 -12.9 °C -13.3 °C 34554.1 hPa SW 20.8 km/h 49.2 km/h 96 % 7.62 mm
09:37 -12.9 °C -13.2 °C 34554.1 hPa West 20.8 km/h 44.1 km/h 96 % 7.62 mm
09:42 -12.9 °C -13.2 °C 34554.1 hPa SW 25.9 km/h 44.1 km/h 96 % 7.62 mm
09:47 -12.9 °C -13.2 °C 34544 hPa SW 23.3 km/h 44.1 km/h 96 % 12.7 mm
09:57 -12.8 °C -13.2 °C 34554.1 hPa WSW 7.7 km/h 36.2 km/h 96 % 12.7 mm
10:02 -12.8 °C -13.1 °C 34544 hPa WSW 15.6 km/h 44.1 km/h 96 % 12.7 mm
10:12 -12.7 °C -13.1 °C 34544 hPa West 31.1 km/h 51.8 km/h 96 % 12.7 mm
10:17 -12.7 °C -13.1 °C 34533.8 hPa West 25.9 km/h 51.8 km/h 96 % 12.7 mm
10:27 -12.7 °C -13 °C 34544 hPa WSW 12.9 km/h 41.4 km/h 96 % 25.4 mm
10:32 -12.7 °C -13 °C 34533.8 hPa SW 18.2 km/h 41.4 km/h 96 % 25.4 mm
10:42 -12.6 °C -12.9 °C 34533.8 hPa SW 15.6 km/h 41.4 km/h 96 % 20.32 mm
10:47 -12.6 °C -12.9 °C 34533.8 hPa SW 33.6 km/h 44.1 km/h 96 % 20.32 mm
10:52 -12.6 °C -12.9 °C 34533.8 hPa West 33.6 km/h 44.1 km/h 96 % 20.32 mm
10:57 -12.6 °C -12.9 °C 34533.8 hPa SW 28.5 km/h 44.1 km/h 96 % 20.32 mm
11:02 -12.6 °C -12.9 °C 34520.3 hPa WSW 20.8 km/h 38.8 km/h 96 % 12.7 mm
11:12 -12.4 °C -12.8 °C 34520.3 hPa SW 23.3 km/h 57 km/h 96 % 20.32 mm
11:17 -12.4 °C -12.8 °C 34520.3 hPa SSW 23.3 km/h 57 km/h 96 % 20.32 mm
11:27 -12.4 °C -12.7 °C 34520.3 hPa West 28.5 km/h 41.4 km/h 96 % 12.7 mm
11:32 -12.3 °C -12.7 °C 34520.3 hPa WSW 18.2 km/h 41.4 km/h 96 % 12.7 mm
11:42 -12.3 °C -12.7 °C 34510.1 hPa SW 20.8 km/h 49.2 km/h 96 % 12.7 mm
11:47 -12.3 °C -12.6 °C 34510.1 hPa West 20.8 km/h 49.2 km/h 96 % 12.7 mm
11:52 -12.3 °C -12.6 °C 34496.6 hPa WSW 18.2 km/h 41.4 km/h 96 % 7.62 mm
11:57 -12.2 °C -12.6 °C 34496.6 hPa WSW 18.2 km/h 46.7 km/h 96 % 7.62 mm
12:02 -12.2 °C -12.5 °C 34486.4 hPa WSW 28.5 km/h 46.7 km/h 96 % 7.62 mm
12:12 -12.1 °C -12.4 °C 34486.4 hPa SW 15.6 km/h 54.4 km/h 96 % 7.62 mm
12:22 -12.1 °C -12.4 °C 34486.4 hPa WSW 18.2 km/h 54.4 km/h 96 % 7.62 mm
12:32 -12 °C -12.3 °C 34476.3 hPa West 28.5 km/h 49.2 km/h 96 % 7.62 mm
12:42 -11.9 °C -12.3 °C 34462.7 hPa SW 15.6 km/h 49.2 km/h 96 % 12.7 mm
12:47 -11.9 °C -12.3 °C 34462.7 hPa West 18.2 km/h 49.2 km/h 96 % 12.7 mm
12:52 -11.9 °C -12.2 °C 34462.7 hPa West 25.9 km/h 49.2 km/h 96 % 12.7 mm
13:02 -11.9 °C -12.3 °C 34462.7 hPa SW 44.1 km/h 46.7 km/h 95 % 12.7 mm
13:12 -11.8 °C -12.2 °C 34462.7 hPa West 31.1 km/h 51.8 km/h 95 % 12.7 mm
13:17 -11.8 °C -12.2 °C 34462.7 hPa West 25.9 km/h 51.8 km/h 95 % 20.32 mm
13:22 -11.8 °C -12.2 °C 34452.6 hPa SW 18.2 km/h 51.8 km/h 95 % 25.4 mm
13:27 -11.7 °C -12.2 °C 34452.6 hPa West 23.3 km/h 46.7 km/h 95 % 25.4 mm
13:32 -11.7 °C -12.2 °C 34452.6 hPa WSW 25.9 km/h 46.7 km/h 95 % 33.02 mm
13:37 -11.7 °C -12.2 °C 34452.6 hPa WSW 15.6 km/h 46.7 km/h 95 % 38.1 mm
13:42 -11.7 °C -12.2 °C 34452.6 hPa SW 20.8 km/h 46.7 km/h 95 % 33.02 mm
13:47 -11.7 °C -12.1 °C 34442.4 hPa West 12.9 km/h 44.1 km/h 95 % 38.1 mm
13:57 -11.6 °C -12.1 °C 34442.4 hPa West 12.9 km/h 54.4 km/h 95 % 38.1 mm
14:02 -11.6 °C -12.1 °C 34428.8 hPa SW 23.3 km/h 54.4 km/h 95 % 33.02 mm
14:07 -11.6 °C -12.1 °C 34428.8 hPa WSW 44.1 km/h 51.8 km/h 95 % 38.1 mm
14:12 -11.6 °C -12.1 °C 34428.8 hPa West 36.2 km/h 46.7 km/h 95 % 38.1 mm
14:17 -11.6 °C -12.1 °C 34428.8 hPa WSW 25.9 km/h 46.7 km/h 95 % 33.02 mm
14:22 -11.6 °C -12.1 °C 34418.7 hPa West 20.8 km/h 46.7 km/h 95 % 33.02 mm
14:27 -11.6 °C -12.1 °C 34418.7 hPa WSW 25.9 km/h 44.1 km/h 95 % 33.02 mm
14:32 -11.6 °C -12.1 °C 34418.7 hPa WSW 15.6 km/h 44.1 km/h 95 % 33.02 mm
14:37 -11.6 °C -12.1 °C 34418.7 hPa WSW 33.6 km/h 44.1 km/h 95 % 33.02 mm
14:42 -11.6 °C -12.1 °C 34418.7 hPa WSW 10.3 km/h 44.1 km/h 95 % 33.02 mm
14:47 -11.6 °C -12.1 °C 34405.1 hPa WSW 25.9 km/h 44.1 km/h 95 % 38.1 mm
14:52 -11.6 °C -12.1 °C 34405.1 hPa WSW 31.1 km/h 44.1 km/h 95 % 38.1 mm
14:57 -11.6 °C -12 °C 34405.1 hPa SW 23.3 km/h 44.1 km/h 95 % 38.1 mm
15:02 -11.6 °C -12 °C 34405.1 hPa WSW 18.2 km/h 44.1 km/h 95 % 38.1 mm
15:12 -11.6 °C -12 °C 34405.1 hPa WSW 20.8 km/h 44.1 km/h 95 % 38.1 mm
15:17 -11.6 °C -12 °C 34405.1 hPa West 15.6 km/h 38.8 km/h 95 % 38.1 mm
15:22 -11.6 °C -12 °C 34405.1 hPa West 25.9 km/h 38.8 km/h 95 % 38.1 mm
15:27 -11.5 °C -11.9 °C 34405.1 hPa West 25.9 km/h 41.4 km/h 95 % 38.1 mm
15:32 -11.5 °C -11.9 °C 34405.1 hPa WSW 18.2 km/h 41.4 km/h 95 % 38.1 mm
15:37 -11.5 °C -11.9 °C 34405.1 hPa West 15.6 km/h 41.4 km/h 95 % 33.02 mm
15:42 -11.5 °C -11.9 °C 34405.1 hPa West 20.8 km/h 41.4 km/h 95 % 33.02 mm
15:47 -11.5 °C -11.9 °C 34405.1 hPa West 28.5 km/h 41.4 km/h 95 % 25.4 mm
15:52 -11.5 °C -11.9 °C 34395 hPa West 23.3 km/h 38.8 km/h 95 % 25.4 mm
15:57 -11.4 °C -11.9 °C 34395 hPa WSW 25.9 km/h 44.1 km/h 95 % 25.4 mm
16:02 -11.4 °C -11.9 °C 34395 hPa West 18.2 km/h 44.1 km/h 95 % 20.32 mm
16:07 -11.4 °C -11.9 °C 34395 hPa West 23.3 km/h 44.1 km/h 95 % 20.32 mm
16:12 -11.4 °C -11.8 °C 34395 hPa SW 20.8 km/h 41.4 km/h 96 % 20.32 mm
16:17 -11.4 °C -11.8 °C 34395 hPa WSW 20.8 km/h 41.4 km/h 96 % 25.4 mm
16:22 -11.4 °C -11.8 °C 34395 hPa West 28.5 km/h 41.4 km/h 96 % 20.32 mm
16:27 -11.4 °C -11.8 °C 34384.8 hPa WSW 28.5 km/h 44.1 km/h 96 % 20.32 mm
16:37 -11.4 °C -11.7 °C 34384.8 hPa West 23.3 km/h 44.1 km/h 96 % 20.32 mm
16:42 -11.4 °C -11.7 °C 34384.8 hPa WSW 31.1 km/h 46.7 km/h 96 % 20.32 mm
16:47 -11.4 °C -11.7 °C 34384.8 hPa WNW 31.1 km/h 46.7 km/h 96 % 12.7 mm
16:52 -11.3 °C -11.7 °C 34384.8 hPa West 25.9 km/h 41.4 km/h 96 % 12.7 mm
16:57 -11.3 °C -11.7 °C 34384.8 hPa SW 12.9 km/h 46.7 km/h 96 % 12.7 mm
17:02 -11.3 °C -11.7 °C 34384.8 hPa West 20.8 km/h 46.7 km/h 96 % 12.7 mm
17:07 -11.3 °C -11.7 °C 34384.8 hPa SW 15.6 km/h 46.7 km/h 96 % 12.7 mm
17:12 -11.3 °C -11.7 °C 34384.8 hPa West 10.3 km/h 41.4 km/h 96 % 12.7 mm
17:17 -11.3 °C -11.7 °C 34384.8 hPa WSW 12.9 km/h 44.1 km/h 96 % 7.62 mm
17:22 -11.3 °C -11.7 °C 34384.8 hPa West 28.5 km/h 44.1 km/h 96 % 12.7 mm
17:27 -11.3 °C -11.7 °C 34384.8 hPa West 18.2 km/h 38.8 km/h 96 % 12.7 mm
17:32 -11.3 °C -11.7 °C 34384.8 hPa West 18.2 km/h 38.8 km/h 96 % 12.7 mm
17:37 -11.3 °C -11.7 °C 34384.8 hPa WSW 25.9 km/h 36.2 km/h 96 % 7.62 mm
17:47 -11.3 °C -11.7 °C 34384.8 hPa West 15.6 km/h 41.4 km/h 96 % 7.62 mm
17:52 -11.3 °C -11.6 °C 34384.8 hPa West 18.2 km/h 41.4 km/h 96 % 7.62 mm
17:57 -11.3 °C -11.6 °C 34384.8 hPa West 10.3 km/h 41.4 km/h 96 % 7.62 mm
18:02 -11.3 °C -11.6 °C 34384.8 hPa WSW 18.2 km/h 38.8 km/h 96 % 12.7 mm
18:07 -11.3 °C -11.6 °C 34384.8 hPa West 20.8 km/h 36.2 km/h 96 % 12.7 mm
18:12 -11.3 °C -11.6 °C 34384.8 hPa WSW 12.9 km/h 36.2 km/h 96 % 12.7 mm
18:17 -11.2 °C -11.6 °C 34384.8 hPa West 20.8 km/h 33.6 km/h 96 % 7.62 mm
18:22 -11.2 °C -11.6 °C 34384.8 hPa West 28.5 km/h 33.6 km/h 96 % 7.62 mm
18:32 -11.2 °C -11.6 °C 34384.8 hPa West 18.2 km/h 33.6 km/h 96 % 7.62 mm
18:42 -11.2 °C -11.5 °C 34384.8 hPa WSW 12.9 km/h 31.1 km/h 96 % 7.62 mm
18:47 -11.2 °C -11.6 °C 34384.8 hPa WNW 23.3 km/h 31.1 km/h 96 % 7.62 mm
18:52 -11.2 °C -11.5 °C 34384.8 hPa West 18.2 km/h 31.1 km/h 96 % 7.62 mm
18:57 -11.2 °C -11.5 °C 34384.8 hPa West 18.2 km/h 46.7 km/h 96 % 0 mm
19:02 -11.2 °C -11.5 °C 34384.8 hPa WSW 10.3 km/h 46.7 km/h 96 % 0 mm
19:07 -11.2 °C -11.5 °C 34384.8 hPa West 12.9 km/h 46.7 km/h 96 % 0 mm
19:12 -11.2 °C -11.5 °C 34384.8 hPa West 18.2 km/h 41.4 km/h 96 % 7.62 mm
19:17 -11.2 °C -11.5 °C 34384.8 hPa West 23.3 km/h 41.4 km/h 96 % 7.62 mm
19:27 -11.1 °C -11.4 °C 34384.8 hPa West 18.2 km/h 41.4 km/h 96 % 7.62 mm
19:32 -11.1 °C -11.4 °C 34384.8 hPa West 20.8 km/h 41.4 km/h 96 % 7.62 mm
19:37 -11.1 °C -11.4 °C 34395 hPa WNW 23.3 km/h 41.4 km/h 96 % 7.62 mm
19:42 -11.1 °C -11.4 °C 34395 hPa WNW 15.6 km/h 41.4 km/h 96 % 7.62 mm
19:47 -11.1 °C -11.4 °C 34395 hPa West 23.3 km/h 41.4 km/h 96 % 7.62 mm
19:52 -11.1 °C -11.4 °C 34395 hPa WSW 25.9 km/h 38.8 km/h 96 % 7.62 mm
19:57 -11.1 °C -11.4 °C 34395 hPa West 12.9 km/h 33.6 km/h 96 % 7.62 mm
20:02 -11.1 °C -11.4 °C 34395 hPa SW 20.8 km/h 38.8 km/h 96 % 7.62 mm
20:07 -11.1 °C -11.4 °C 34395 hPa West 23.3 km/h 38.8 km/h 96 % 0 mm
20:12 -11.1 °C -11.4 °C 34395 hPa West 15.6 km/h 38.8 km/h 96 % 0 mm
20:17 -11.1 °C -11.4 °C 34395 hPa West 7.7 km/h 36.2 km/h 96 % 0 mm
20:22 -11.1 °C -11.4 °C 34395 hPa WSW 33.6 km/h 36.2 km/h 96 % 0 mm
20:27 -11.1 °C -11.4 °C 34395 hPa West 12.9 km/h 41.4 km/h 96 % 0 mm
20:32 -11.1 °C -11.4 °C 34395 hPa WSW 23.3 km/h 41.4 km/h 96 % 0 mm
20:37 -11.1 °C -11.4 °C 34395 hPa SW 23.3 km/h 41.4 km/h 96 % 0 mm
20:42 -11.1 °C -11.4 °C 34395 hPa WSW 31.1 km/h 33.6 km/h 96 % 0 mm
20:52 -11.1 °C -11.4 °C 34395 hPa West 18.2 km/h 41.4 km/h 96 % 0 mm
20:57 -11.1 °C -11.4 °C 34395 hPa WSW 20.8 km/h 41.4 km/h 96 % 0 mm
21:02 -11.1 °C -11.4 °C 34395 hPa WNW 23.3 km/h 36.2 km/h 96 % 0 mm
21:07 -11.1 °C -11.4 °C 34405.1 hPa West 15.6 km/h 36.2 km/h 96 % 0 mm
21:12 -11.1 °C -11.4 °C 34405.1 hPa WSW 15.6 km/h 36.2 km/h 96 % 0 mm
21:17 -11.1 °C -11.4 °C 34395 hPa WSW 12.9 km/h 46.7 km/h 96 % 0 mm
21:22 -11.1 °C -11.4 °C 34395 hPa WNW 7.7 km/h 46.7 km/h 96 % 0 mm
21:27 -11.1 °C -11.4 °C 34405.1 hPa West 18.2 km/h 31.1 km/h 96 % 0 mm
21:32 -11.1 °C -11.4 °C 34395 hPa West 15.6 km/h 33.6 km/h 96 % 0 mm
21:37 -11.1 °C -11.4 °C 34395 hPa WSW 20.8 km/h 33.6 km/h 96 % 0 mm
21:42 -11.1 °C -11.4 °C 34395 hPa WNW 20.8 km/h 41.4 km/h 96 % 0 mm
21:47 -11.1 °C -11.4 °C 34395 hPa West 18.2 km/h 41.4 km/h 96 % 0 mm
21:57 -11.1 °C -11.4 °C 34395 hPa WNW 20.8 km/h 38.8 km/h 96 % 0 mm
22:02 -11.1 °C -11.4 °C 34395 hPa WNW 15.6 km/h 38.8 km/h 96 % 0 mm
22:07 -11.1 °C -11.4 °C 34395 hPa WNW 10.3 km/h 38.8 km/h 96 % 0 mm
22:12 -11.1 °C -11.5 °C 34395 hPa West 36.2 km/h 38.8 km/h 95 % 0 mm
22:17 -11.1 °C -11.5 °C 34405.1 hPa WNW 20.8 km/h 46.7 km/h 95 % 0 mm
22:22 -11.1 °C -11.5 °C 34395 hPa West 23.3 km/h 46.7 km/h 95 % 0 mm
22:27 -11.1 °C -11.5 °C 34405.1 hPa West 28.5 km/h 46.7 km/h 95 % 0 mm
22:32 -11.1 °C -11.5 °C 34405.1 hPa WNW 25.9 km/h 38.8 km/h 95 % 0 mm
22:37 -11.1 °C -11.5 °C 34405.1 hPa WSW 33.6 km/h 38.8 km/h 95 % 0 mm
22:42 -11.1 °C -11.5 °C 34405.1 hPa West 31.1 km/h 38.8 km/h 95 % 0 mm
22:47 -11.1 °C -11.5 °C 34395 hPa West 15.6 km/h 38.8 km/h 95 % 0 mm
22:52 -11 °C -11.5 °C 34395 hPa West 33.6 km/h 41.4 km/h 94 % 0 mm
22:57 -10.9 °C -11.6 °C 34395 hPa WNW 20.8 km/h 44.1 km/h 93 % 0 mm
23:02 -10.9 °C -11.6 °C 34395 hPa West 31.1 km/h 44.1 km/h 93 % 0 mm
23:07 -10.9 °C -11.6 °C 34395 hPa WNW 20.8 km/h 41.4 km/h 93 % 0 mm
23:12 -10.9 °C -11.6 °C 34405.1 hPa West 20.8 km/h 38.8 km/h 93 % 0 mm
23:22 -10.9 °C -11.6 °C 34395 hPa West 15.6 km/h 41.4 km/h 93 % 7.62 mm
23:27 -11 °C -11.5 °C 34395 hPa WNW 25.9 km/h 41.4 km/h 94 % 7.62 mm
23:32 -11.1 °C -11.6 °C 34395 hPa WSW 23.3 km/h 38.8 km/h 94 % 7.62 mm
23:37 -11.1 °C -11.6 °C 34395 hPa West 15.6 km/h 38.8 km/h 94 % 7.62 mm
23:47 -11.1 °C -11.6 °C 34395 hPa West 18.2 km/h 38.8 km/h 95 % 7.62 mm
23:52 -11.1 °C -11.6 °C 34395 hPa West 18.2 km/h 33.6 km/h 95 % 7.62 mm
23:57 -11.1 °C -11.6 °C 34395 hPa West 15.6 km/h 38.8 km/h 94 % 7.62 mm
Meteo18
Compliments of Weather Underground - 4 mb

Script developed by  Jim McMurry - jmcmurry@mwt.net Adapted for the template by  Wim van der Kuil - Leuven-Template.eu

You find our weather info also at:

European Weather Network

Weather Underground

Equipment we use:

Weather-station
Davis Vue

Weather-program
Meteobridge

Weather-server
Raspberry PI 2 B+

Provider
1 and 1

Davis Vue

Meteobridge

Raspberry PI 2 B+

1 and 1